Time;durP1;ratioP1;P1;durP2;ratioP2;P2;SDS_P1;SDS_P2;PMS_P1;PMS_P2;Temp;Humidity;BMP_temperature;BMP_pressure;BME280_temperature;BME280_humidity;BME280_pressure;Samples;Min_cycle;Max_cycle;Signal;HPM_P1;HPM_P2
2023/10/02 00:02:40;;;;;;;7.70;3.50;;;;;;;10.40;95.80;97479.38;111715;1244;26208;-80
2023/10/02 00:05:07;;;;;;;6.50;3.20;;;;;;;10.39;95.83;97477.73;111696;1244;22501;-80
2023/10/02 00:07:36;;;;;;;8.90;3.70;;;;;;;10.44;96.06;97475.49;111753;1244;22491;-80
2023/10/02 00:10:08;;;;;;;8.30;3.80;;;;;;;10.50;96.02;97472.40;111706;1244;22499;-81
2023/10/02 00:12:36;;;;;;;7.40;3.00;;;;;;;10.55;96.08;97471.89;111770;1244;24215;-80
2023/10/02 00:15:12;;;;;;;8.40;3.20;;;;;;;10.61;96.09;97467.80;111683;1244;23466;-80
2023/10/02 00:17:43;;;;;;;11.50;3.40;;;;;;;10.68;96.06;97467.92;111732;1244;22534;-80
2023/10/02 00:20:21;;;;;;;9.00;3.30;;;;;;;10.79;96.04;97468.67;111720;1244;24225;-80
2023/10/02 00:22:50;;;;;;;9.90;3.80;;;;;;;10.94;95.89;97465.25;111705;1244;22614;-80
2023/10/02 00:25:20;;;;;;;;;;;;;;;11.02;95.62;97462.90;111702;1244;22490;-80
2023/10/02 00:27:51;;;;;;;5.90;3.00;;;;;;;11.05;95.38;97457.70;111715;1244;22485;-81
2023/10/02 00:30:21;;;;;;;9.80;3.60;;;;;;;11.10;95.32;97453.73;111720;1244;22606;-80
2023/10/02 00:32:52;;;;;;;12.30;4.00;;;;;;;11.14;95.11;97453.45;111702;1244;22505;-80
2023/10/02 00:35:22;;;;;;;7.40;3.30;;;;;;;11.14;94.90;97454.14;111678;1244;34396;-80
2023/10/02 00:37:51;;;;;;;9.90;3.10;;;;;;;11.15;94.76;97452.02;111744;1244;22622;-80
2023/10/02 00:40:21;;;;;;;8.60;3.30;;;;;;;11.17;94.63;97452.48;111694;1244;22505;-81
2023/10/02 00:42:54;;;;;;;7.90;3.00;;;;;;;11.18;94.54;97449.20;111717;1244;22509;-81
2023/10/02 00:45:23;;;;;;;8.10;3.10;;;;;;;11.20;94.49;97447.40;111702;1244;22517;-80
2023/10/02 00:47:53;;;;;;;7.10;2.90;;;;;;;11.23;94.23;97450.06;111688;1244;23216;-80
2023/10/02 00:50:23;;;;;;;8.60;3.10;;;;;;;11.24;94.21;97446.98;111705;1244;22495;-81
2023/10/02 00:52:55;;;;;;;9.40;3.30;;;;;;;11.28;94.05;97446.58;111695;1244;25461;-80
2023/10/02 00:55:25;;;;;;;7.70;3.20;;;;;;;11.32;93.98;97445.79;111709;1244;22564;-80
2023/10/02 00:57:53;;;;;;;;;;;;;;;11.35;93.89;97447.77;111712;1244;22575;-80
2023/10/02 01:00:30;;;;;;;6.90;3.20;;;;;;;11.39;93.78;97448.73;111750;1244;22531;-80
2023/10/02 01:03:01;;;;;;;6.70;3.20;;;;;;;11.44;93.71;97443.59;111710;1244;22628;-80
2023/10/02 01:05:42;;;;;;;9.60;3.30;;;;;;;11.50;93.61;97444.13;111718;1244;25363;-80
2023/10/02 01:08:23;;;;;;;8.20;2.90;;;;;;;11.53;93.41;97446.77;111737;1244;22495;-81
2023/10/02 01:10:59;;;;;;;8.20;3.30;;;;;;;11.56;93.28;97443.57;111724;1244;25365;-80
2023/10/02 01:13:29;;;;;;;7.60;3.10;;;;;;;11.57;93.17;97439.27;111689;1244;26403;-80
2023/10/02 01:15:59;;;;;;;8.80;3.30;;;;;;;11.57;92.99;97438.04;111696;1244;22498;-81
2023/10/02 01:18:28;;;;;;;8.30;3.00;;;;;;;11.59;92.95;97438.57;111742;1244;22536;-80
2023/10/02 01:20:59;;;;;;;5.80;3.20;;;;;;;11.59;92.86;97439.15;111721;1244;24377;-81
2023/10/02 01:23:31;;;;;;;7.70;3.40;;;;;;;11.60;92.81;97440.95;111730;1244;25375;-82
2023/10/02 01:26:00;;;;;;;10.40;3.60;;;;;;;11.65;92.71;97438.77;111751;1244;22558;-81
2023/10/02 01:28:49;;;;;;;7.60;3.30;;;;;;;11.69;92.62;97436.98;111714;1244;22574;-81
2023/10/02 01:34:04;;;;;;;9.10;3.50;;;;;;;11.74;92.38;97439.74;111668;1244;22518;-81
2023/10/02 01:36:33;;;;;;;7.80;3.10;;;;;;;11.74;92.29;97437.73;111779;1244;22490;-81
2023/10/02 01:39:13;;;;;;;7.10;2.20;;;;;;;11.72;92.08;97445.48;111710;1240;22588;-81
2023/10/02 01:41:45;;;;;;;9.50;3.10;;;;;;;11.73;92.01;97450.48;111686;1244;22505;-81
2023/10/02 01:44:20;;;;;;;6.30;3.10;;;;;;;11.75;92.00;97452.77;111707;1244;24471;-81
2023/10/02 01:46:49;;;;;;;8.60;2.90;;;;;;;11.75;91.87;97456.16;112046;1244;22718;-81
2023/10/02 01:49:27;;;;;;;9.60;2.90;;;;;;;11.77;91.81;97461.36;111748;1244;25317;-81
2023/10/02 01:51:58;;;;;;;8.20;3.30;;;;;;;11.78;91.71;97467.86;111729;1244;22517;-81
2023/10/02 01:54:29;;;;;;;8.90;3.50;;;;;;;11.80;91.65;97467.83;111684;1231;25551;-81
2023/10/02 01:56:59;;;;;;;8.10;3.00;;;;;;;11.81;91.64;97463.89;111586;1244;22501;-81
2023/10/02 01:59:28;;;;;;;5.90;2.70;;;;;;;11.82;91.56;97466.47;111688;1244;26418;-81
2023/10/02 02:01:57;;;;;;;13.20;3.80;;;;;;;11.84;91.56;97463.38;111706;1244;22527;-81
2023/10/02 02:04:27;;;;;;;6.00;2.70;;;;;;;11.84;91.46;97463.33;111703;1244;22505;-81
2023/10/02 02:06:57;;;;;;;8.50;3.20;;;;;;;11.83;91.41;97466.68;111785;1244;22672;-81
2023/10/02 02:09:25;;;;;;;;;;;;;;;11.83;91.39;97466.20;111731;1243;22498;-81
2023/10/02 02:12:07;;;;;;;7.60;3.00;;;;;;;11.80;91.42;97464.52;111715;1244;22521;-81
2023/10/02 02:14:41;;;;;;;9.20;3.40;;;;;;;11.78;91.31;97465.40;111719;1244;22493;-81
2023/10/02 02:17:10;;;;;;;7.00;3.30;;;;;;;11.78;91.33;97468.13;111746;1244;24179;-82
2023/10/02 02:19:47;;;;;;;7.70;3.10;;;;;;;11.78;91.34;97469.02;111712;1244;22502;-81
2023/10/02 02:22:23;;;;;;;6.10;3.20;;;;;;;11.79;91.26;97463.73;111730;1244;22516;-81
2023/10/02 02:24:53;;;;;;;6.50;3.10;;;;;;;11.81;91.15;97465.12;111737;1244;22566;-81
2023/10/02 02:27:20;;;;;;;;;;;;;;;11.85;91.01;97465.14;111731;1244;23266;-81
2023/10/02 02:29:50;;;;;;;9.30;2.90;;;;;;;11.89;90.86;97463.33;111747;1244;22505;-82
2023/10/02 02:32:19;;;;;;;7.00;2.90;;;;;;;11.92;90.73;97464.06;111752;1244;22501;-81
2023/10/02 02:34:47;;;;;;;6.40;2.90;;;;;;;11.96;90.62;97467.57;111694;1244;22516;-81
2023/10/02 02:37:28;;;;;;;8.10;3.50;;;;;;;11.97;90.48;97464.77;111747;1244;22504;-81
2023/10/02 02:40:22;;;;;;;6.30;3.20;;;;;;;11.99;90.31;97463.45;111729;1244;22506;-81
2023/10/02 02:42:46;;;;;;;7.00;2.80;;;;;;;12.00;90.27;97465.62;111724;1242;22506;-81
2023/10/02 02:45:24;;;;;;;6.80;3.30;;;;;;;12.01;90.29;97466.52;111717;1244;22583;-81
2023/10/02 02:47:54;;;;;;;8.50;3.30;;;;;;;12.00;90.20;97463.87;111734;1244;24185;-81
2023/10/02 02:50:28;;;;;;;7.00;3.20;;;;;;;11.99;90.12;97464.61;111744;1244;25339;-81
2023/10/02 02:55:38;;;;;;;7.40;2.90;;;;;;;12.01;89.95;97456.10;111702;1244;23282;-81
2023/10/02 02:58:07;;;;;;;4.90;2.60;;;;;;;12.02;89.93;97456.79;111744;1244;22526;-81
2023/10/02 03:00:39;;;;;;;9.10;2.80;;;;;;;12.01;89.84;97456.48;111730;1244;22600;-81
2023/10/02 03:03:32;;;;;;;5.50;2.80;;;;;;;12.01;89.80;97455.94;111759;1244;22912;-81
2023/10/02 03:05:58;;;;;;;6.10;3.00;;;;;;;12.01;89.73;97453.91;111744;1244;22635;-81
2023/10/02 03:08:37;;;;;;;7.10;3.10;;;;;;;12.01;89.66;97454.77;111767;1244;22524;-81
2023/10/02 03:11:07;;;;;;;7.20;3.20;;;;;;;12.01;89.74;97455.35;111731;1244;25356;-81
2023/10/02 03:13:35;;;;;;;8.50;3.30;;;;;;;11.99;89.73;97453.13;111723;1244;22625;-81
2023/10/02 03:16:12;;;;;;;6.30;2.70;;;;;;;12.00;89.57;97459.56;111757;1244;22501;-81
2023/10/02 03:18:43;;;;;;;7.90;2.90;;;;;;;12.01;89.52;97460.94;111753;1244;22543;-81
2023/10/02 03:21:21;;;;;;;7.40;3.20;;;;;;;12.02;89.47;97463.48;111764;1244;22504;-81
2023/10/02 03:23:53;;;;;;;5.30;2.60;;;;;;;12.01;89.50;97462.69;111718;1244;22504;-81
2023/10/02 03:26:37;;;;;;;7.20;2.70;;;;;;;12.00;89.37;97458.39;111764;1244;22707;-81
2023/10/02 03:29:11;;;;;;;7.00;2.90;;;;;;;12.00;89.45;97460.20;111758;1244;22528;-81
2023/10/02 03:31:43;;;;;;;7.60;3.10;;;;;;;11.99;89.44;97453.34;111730;1244;22569;-81
2023/10/02 03:34:28;;;;;;;7.80;3.30;;;;;;;11.98;89.35;97452.98;111741;1244;23916;-81
2023/10/02 03:37:00;;;;;;;6.40;3.00;;;;;;;11.98;89.38;97456.95;111767;1244;22643;-82
2023/10/02 03:42:22;;;;;;;8.60;3.40;;;;;;;11.98;89.34;97458.66;111748;1244;22522;-81
2023/10/02 03:44:50;;;;;;;6.10;3.00;;;;;;;11.99;89.37;97460.15;111734;1244;22532;-81
2023/10/02 03:47:19;;;;;;;6.40;2.70;;;;;;;12.00;89.25;97453.44;111744;1244;22556;-81
2023/10/02 03:49:49;;;;;;;6.30;2.80;;;;;;;12.00;89.26;97452.55;111713;1244;22925;-81
2023/10/02 03:52:18;;;;;;;7.50;2.80;;;;;;;11.99;89.18;97456.64;111717;1244;23884;-81
2023/10/02 03:54:54;;;;;;;8.50;3.00;;;;;;;11.98;89.23;97456.80;111725;1244;25511;-81
2023/10/02 03:57:47;;;;;;;7.40;2.60;;;;;;;11.97;89.24;97461.42;111752;1244;24211;-81
2023/10/02 04:00:19;;;;;;;9.00;3.20;;;;;;;11.98;89.30;97457.70;111736;1244;22525;-81
2023/10/02 04:02:48;;;;;;;7.30;3.10;;;;;;;11.98;89.34;97459.36;111778;1244;22498;-81
2023/10/02 04:05:31;;;;;;;6.30;3.00;;;;;;;11.99;89.27;97461.59;111745;1244;22499;-81
2023/10/02 04:08:21;;;;;;;7.90;3.10;;;;;;;12.00;89.28;97464.18;111755;1244;22534;-82
2023/10/02 04:10:57;;;;;;;6.90;2.80;;;;;;;12.02;89.31;97467.36;111754;1244;22516;-81
2023/10/02 04:13:29;;;;;;;7.40;3.00;;;;;;;12.03;89.22;97466.46;111740;1244;25226;-81
2023/10/02 04:18:46;;;;;;;9.60;3.20;;;;;;;12.07;89.08;97472.30;111757;1244;26434;-81
2023/10/02 04:21:20;;;;;;;7.20;3.20;;;;;;;12.09;89.07;97477.13;111780;1244;22705;-81
2023/10/02 04:23:48;;;;;;;9.20;3.40;;;;;;;12.10;89.17;97479.64;111726;1244;29131;-80
2023/10/02 04:26:20;;;;;;;6.00;2.80;;;;;;;12.09;89.14;97478.89;111745;1244;22488;-81
2023/10/02 04:28:54;;;;;;;7.30;3.00;;;;;;;12.09;89.12;97481.70;111754;1244;22512;-81
2023/10/02 04:31:27;;;;;;;9.80;3.10;;;;;;;12.09;89.07;97476.34;111756;1244;22505;-81
2023/10/02 04:36:44;;;;;;;7.40;3.20;;;;;;;12.11;89.03;97476.94;111739;1244;22931;-81
2023/10/02 04:42:13;;;;;;;7.60;3.00;;;;;;;12.09;88.99;97484.69;111648;1244;22530;-81
2023/10/02 04:44:46;;;;;;;6.80;2.80;;;;;;;12.11;89.16;97487.04;111755;1244;22495;-81
2023/10/02 04:47:17;;;;;;;8.10;2.80;;;;;;;12.12;89.18;97485.98;111762;1244;22520;-81
2023/10/02 04:53:03;;;;;;;6.20;3.00;;;;;;;12.15;89.13;97491.77;111743;1244;22513;-81
2023/10/02 04:55:41;;;;;;;6.50;2.60;;;;;;;12.16;88.94;97496.55;111737;1244;22595;-81
2023/10/02 04:58:14;;;;;;;8.50;3.10;;;;;;;12.16;89.01;97501.45;111736;1244;22519;-82
2023/10/02 05:01:18;;;;;;;7.90;2.90;;;;;;;12.17;88.93;97501.02;111769;1244;22611;-81
2023/10/02 05:03:36;;;;;;;8.30;3.00;;;;;;;12.18;88.99;97499.10;111691;1244;51722;-81
2023/10/02 05:06:06;;;;;;;10.40;2.80;;;;;;;12.20;88.88;97497.70;111748;1244;22492;-82
2023/10/02 05:08:40;;;;;;;8.20;3.30;;;;;;;12.22;88.85;97494.30;111783;1244;24360;-81
2023/10/02 05:11:23;;;;;;;6.20;2.80;;;;;;;12.23;88.84;97494.98;111748;1244;24182;-81
2023/10/02 05:14:00;;;;;;;5.70;2.60;;;;;;;12.24;88.82;97494.24;111744;1244;22507;-81
2023/10/02 05:16:32;;;;;;;6.40;3.00;;;;;;;12.23;88.95;97498.87;111761;1244;22647;-81
2023/10/02 05:19:04;;;;;;;7.20;3.70;;;;;;;12.24;88.85;97499.20;111768;1244;22516;-81
2023/10/02 05:21:39;;;;;;;8.40;3.20;;;;;;;12.24;88.79;97502.38;111768;1244;25226;-81
2023/10/02 05:24:11;;;;;;;8.00;3.00;;;;;;;12.24;88.84;97502.28;111754;1244;24337;-81
2023/10/02 05:26:41;;;;;;;6.10;2.60;;;;;;;12.25;88.88;97508.48;111767;1244;22530;-81
2023/10/02 05:29:14;;;;;;;10.60;3.40;;;;;;;12.25;88.80;97504.31;111768;1244;22525;-81
2023/10/02 05:31:43;;;;;;;6.40;3.00;;;;;;;12.24;88.79;97506.86;111783;1244;22530;-81
2023/10/02 05:34:16;;;;;;;7.30;3.00;;;;;;;12.24;88.80;97511.16;111722;1244;32191;-81
2023/10/02 05:37:03;;;;;;;5.70;3.00;;;;;;;12.24;89.03;97514.18;111789;1244;22512;-81
2023/10/02 05:39:34;;;;;;;10.40;3.50;;;;;;;12.23;88.94;97512.64;111785;1244;25410;-81
2023/10/02 05:42:13;;;;;;;6.10;3.10;;;;;;;12.24;88.88;97510.63;111782;1244;23003;-81
2023/10/02 05:44:43;;;;;;;7.20;2.80;;;;;;;12.24;88.92;97512.87;111750;1244;22795;-81
2023/10/02 05:47:15;;;;;;;6.70;2.80;;;;;;;12.24;88.92;97514.46;111804;1244;22524;-81
2023/10/02 05:49:47;;;;;;;8.90;3.40;;;;;;;12.24;89.03;97512.11;111776;1244;23959;-81
2023/10/02 05:52:18;;;;;;;8.50;3.30;;;;;;;12.23;89.07;97517.32;111759;1244;22545;-81
2023/10/02 05:54:47;;;;;;;5.70;2.60;;;;;;;12.24;89.25;97518.33;111759;1244;25331;-81
2023/10/02 05:57:16;;;;;;;7.10;2.90;;;;;;;12.23;89.24;97519.23;111772;1244;25248;-81
2023/10/02 05:59:48;;;;;;;7.50;3.00;;;;;;;12.24;89.24;97518.45;111745;1244;24201;-81
2023/10/02 06:02:19;;;;;;;8.70;3.40;;;;;;;12.24;89.27;97517.33;111756;1244;25146;-81
2023/10/02 06:04:53;;;;;;;7.90;3.90;;;;;;;12.26;89.41;97523.25;111734;1244;25280;-81
2023/10/02 06:07:43;;;;;;;7.80;2.70;;;;;;;12.27;89.34;97527.98;111786;1244;22531;-81
2023/10/02 06:10:25;;;;;;;8.30;3.10;;;;;;;12.29;89.38;97529.15;111788;1244;25244;-81
2023/10/02 06:13:02;;;;;;;7.60;3.40;;;;;;;12.29;89.51;97529.30;111742;1244;24860;-81
2023/10/02 06:15:46;;;;;;;6.90;2.90;;;;;;;12.30;89.52;97525.69;111767;1244;28896;-81
2023/10/02 06:18:24;;;;;;;9.20;3.20;;;;;;;12.32;89.63;97529.77;111765;1240;22521;-81
2023/10/02 06:21:00;;;;;;;9.80;3.80;;;;;;;12.34;89.73;97532.96;111754;1244;24234;-81
2023/10/02 06:23:29;;;;;;;11.70;4.90;;;;;;;12.36;89.69;97536.25;111721;1244;22519;-80
2023/10/02 06:25:59;;;;;;;9.70;4.10;;;;;;;12.40;89.69;97535.64;111790;1244;24187;-81
2023/10/02 06:28:28;;;;;;;9.30;4.40;;;;;;;12.44;89.82;97538.23;111771;1244;23053;-81
2023/10/02 06:30:56;;;;;;;9.80;4.10;;;;;;;12.49;89.85;97536.14;111786;1244;22569;-81
2023/10/02 06:33:24;;;;;;;8.50;4.10;;;;;;;12.56;89.84;97536.37;111736;1244;23160;-81
2023/10/02 06:35:57;;;;;;;9.10;3.50;;;;;;;12.63;89.93;97544.22;111762;1244;22937;-81
2023/10/02 06:38:25;;;;;;;6.10;2.90;;;;;;;12.70;89.91;97543.38;111764;1244;23941;-82
2023/10/02 06:40:57;;;;;;;5.80;3.20;;;;;;;12.74;89.61;97543.62;111763;1244;22505;-81
2023/10/02 06:43:29;;;;;;;6.60;2.70;;;;;;;12.80;89.62;97544.67;111752;1244;22507;-81
2023/10/02 06:46:06;;;;;;;6.60;2.90;;;;;;;12.84;89.48;97547.28;111762;1244;22503;-81
2023/10/02 06:48:35;;;;;;;8.30;3.40;;;;;;;12.87;89.42;97550.46;111822;1244;22509;-81
2023/10/02 06:51:07;;;;;;;6.70;3.20;;;;;;;12.91;89.38;97546.63;111774;1244;22502;-81
2023/10/02 06:53:36;;;;;;;;;;;;;;;12.95;89.41;97544.00;111732;1244;22484;-81
2023/10/02 06:56:18;;;;;;;6.20;3.00;;;;;;;12.99;89.24;97550.11;111761;1244;26390;-82
2023/10/02 06:58:49;;;;;;;7.60;4.00;;;;;;;13.01;89.15;97553.63;111769;1243;22505;-81
2023/10/02 07:01:18;;;;;;;7.50;3.20;;;;;;;13.06;89.14;97550.84;111757;1243;22580;-81
2023/10/02 07:03:50;;;;;;;7.50;3.10;;;;;;;13.16;89.38;97554.98;111744;1244;22505;-81
2023/10/02 07:06:19;;;;;;;5.80;2.90;;;;;;;13.28;89.37;97558.69;111778;1244;22523;-81
2023/10/02 07:09:08;;;;;;;7.70;2.80;;;;;;;13.36;89.16;97559.45;111812;1244;25232;-81
2023/10/02 07:11:39;;;;;;;6.10;2.50;;;;;;;13.41;88.95;97554.75;111756;1244;22537;-81
2023/10/02 07:14:09;;;;;;;9.30;3.80;;;;;;;13.47;88.79;97552.54;111785;1244;24393;-81
2023/10/02 07:16:38;;;;;;;6.90;2.80;;;;;;;13.57;88.62;97553.50;111798;1244;24204;-82
2023/10/02 07:19:07;;;;;;;6.80;2.80;;;;;;;13.67;88.55;97550.11;111779;1244;22506;-81
2023/10/02 07:21:39;;;;;;;9.00;3.40;;;;;;;13.75;88.40;97548.88;111776;1244;24209;-81
2023/10/02 07:24:25;;;;;;;8.40;2.90;;;;;;;13.86;88.52;97548.08;111768;1244;22583;-81
2023/10/02 07:26:54;;;;;;;7.60;3.20;;;;;;;14.03;88.50;97547.42;111794;1241;22546;-82
2023/10/02 07:29:37;;;;;;;7.40;3.40;;;;;;;14.13;88.05;97543.80;111772;1244;24027;-82
2023/10/02 07:32:06;;;;;;;6.20;3.20;;;;;;;14.26;88.38;97544.45;111784;1240;25296;-82
2023/10/02 07:34:38;;;;;;;7.90;3.30;;;;;;;14.70;89.31;97544.52;111799;1244;22502;-82
2023/10/02 07:37:06;;;;;;;6.10;3.10;;;;;;;15.24;89.30;97552.23;111776;1244;24210;-81
2023/10/02 07:39:38;;;;;;;5.40;2.70;;;;;;;15.78;89.35;97555.23;107689;1243;5308244;-82
2023/10/02 07:42:10;;;;;;;7.10;3.00;;;;;;;16.23;87.77;97556.83;111759;1244;22531;-82
2023/10/02 07:44:39;;;;;;;6.70;2.80;;;;;;;16.32;86.04;97556.10;111787;1244;23687;-82
2023/10/02 07:47:10;;;;;;;7.20;3.40;;;;;;;16.44;85.99;97553.77;111786;1244;22496;-82
2023/10/02 07:49:40;;;;;;;7.80;3.20;;;;;;;16.70;85.93;97552.66;111767;1244;22499;-82
2023/10/02 07:52:11;;;;;;;5.30;3.00;;;;;;;16.72;84.46;97559.11;111781;1244;22525;-82
2023/10/02 07:54:48;;;;;;;9.20;3.40;;;;;;;16.61;84.11;97560.02;111920;1244;22693;-82
2023/10/02 07:57:18;;;;;;;8.10;3.20;;;;;;;16.57;84.15;97558.52;111798;1244;22485;-82
2023/10/02 07:59:49;;;;;;;6.80;3.00;;;;;;;16.72;84.55;97559.22;111774;1244;22527;-82
2023/10/02 08:02:22;;;;;;;6.20;3.40;;;;;;;17.04;84.88;97551.53;111754;1244;22666;-82
2023/10/02 08:04:52;;;;;;;7.60;3.40;;;;;;;17.34;83.99;97551.16;111779;1241;22555;-82
2023/10/02 08:07:21;;;;;;;8.20;3.20;;;;;;;17.47;82.87;97548.75;111816;1244;22553;-82
2023/10/02 08:09:52;;;;;;;6.50;3.40;;;;;;;17.55;82.71;97543.27;111776;1244;22549;-82
2023/10/02 08:12:34;;;;;;;5.20;2.80;;;;;;;17.65;82.03;97538.31;111754;1243;22508;-82
2023/10/02 08:15:26;;;;;;;6.80;3.40;;;;;;;17.78;82.23;97534.35;111746;1244;28947;-82
2023/10/02 08:18:03;;;;;;;6.70;3.60;;;;;;;17.89;81.29;97529.88;111805;1244;22554;-81
2023/10/02 08:20:36;;;;;;;8.20;3.60;;;;;;;17.99;81.13;97530.81;111752;1244;22634;-81
2023/10/02 08:23:22;;;;;;;7.50;3.30;;;;;;;18.09;80.40;97528.21;111800;1244;22582;-81
2023/10/02 08:26:02;;;;;;;5.40;3.00;;;;;;;18.07;79.57;97527.46;111781;1244;22505;-82
2023/10/02 08:28:33;;;;;;;7.00;3.70;;;;;;;17.96;78.78;97527.45;111773;1244;25397;-81
2023/10/02 08:31:02;;;;;;;7.50;3.40;;;;;;;17.83;78.82;97525.55;112128;1244;24222;-81
2023/10/02 08:33:32;;;;;;;9.00;4.20;;;;;;;17.88;79.30;97527.50;112029;1244;70265;-80
2023/10/02 08:36:09;;;;;;;6.40;3.00;;;;;;;18.00;79.22;97528.23;111783;1244;22485;-81
2023/10/02 08:38:40;;;;;;;5.10;3.50;;;;;;;18.25;79.62;97527.38;111789;1244;22584;-81
2023/10/02 08:41:09;;;;;;;9.10;3.80;;;;;;;18.48;79.01;97522.73;111775;1244;22504;-81
2023/10/02 08:43:42;;;;;;;8.00;3.80;;;;;;;18.60;78.16;97521.64;112073;1244;44319;-81
2023/10/02 08:46:19;;;;;;;9.30;3.60;;;;;;;18.58;76.79;97520.64;111857;1244;22519;-81
2023/10/02 08:48:54;;;;;;;9.20;4.00;;;;;;;18.49;75.80;97522.81;111759;1244;24178;-80
2023/10/02 08:51:29;;;;;;;7.90;3.80;;;;;;;18.48;75.70;97520.38;111803;1244;22504;-81
2023/10/02 08:54:05;;;;;;;7.00;3.50;;;;;;;18.40;74.89;97516.83;111757;1244;22509;-81
2023/10/02 08:56:44;;;;;;;10.70;3.40;;;;;;;18.25;73.35;97517.97;111782;1244;22504;-81
2023/10/02 08:59:18;;;;;;;5.90;3.40;;;;;;;18.08;73.32;97521.02;111824;1244;22519;-81
2023/10/02 09:01:48;;;;;;;8.80;4.00;;;;;;;18.06;73.87;97524.50;111786;1244;22464;-81
2023/10/02 09:04:28;;;;;;;8.60;3.30;;;;;;;18.19;74.25;97519.04;111794;1244;24359;-82
2023/10/02 09:07:14;;;;;;;9.10;3.80;;;;;;;18.24;73.79;97517.77;111795;1244;22488;-81
2023/10/02 09:09:54;;;;;;;9.10;3.30;;;;;;;18.23;73.07;97514.80;111779;1244;26049;-81
2023/10/02 09:12:22;;;;;;;11.50;3.80;;;;;;;18.22;73.55;97516.71;111773;1244;22497;-81
2023/10/02 09:14:55;;;;;;;6.80;3.50;;;;;;;18.26;72.24;97510.53;111750;1244;22531;-81
2023/10/02 09:17:33;;;;;;;7.20;3.40;;;;;;;18.16;72.18;97506.86;111776;1244;25276;-81
2023/10/02 09:20:07;;;;;;;6.40;3.30;;;;;;;18.16;72.07;97505.85;112093;1244;22509;-81
2023/10/02 09:22:38;;;;;;;7.50;3.40;;;;;;;18.18;71.49;97502.05;112069;1244;25368;-82
2023/10/02 09:25:09;;;;;;;8.60;3.60;;;;;;;18.13;71.79;97507.20;112089;1244;25267;-80
2023/10/02 09:27:54;;;;;;;7.90;3.90;;;;;;;18.19;72.41;97504.10;111799;1244;22525;-81
2023/10/02 09:30:36;;;;;;;8.40;3.50;;;;;;;18.30;72.23;97506.52;112083;1244;22559;-81
2023/10/02 09:33:14;;;;;;;5.60;3.40;;;;;;;18.28;71.74;97504.40;111796;1244;22513;-81
2023/10/02 09:35:43;;;;;;;6.70;3.50;;;;;;;18.37;72.43;97496.20;111758;1244;26546;-81
2023/10/02 09:38:13;;;;;;;6.40;3.40;;;;;;;18.57;72.92;97495.88;111802;1244;22517;-81
2023/10/02 09:40:58;;;;;;;6.70;3.50;;;;;;;18.67;71.81;97495.00;111818;1244;24191;-82
2023/10/02 09:43:28;;;;;;;6.50;3.20;;;;;;;18.60;71.59;97496.98;111788;1244;25317;-82
2023/10/02 09:46:05;;;;;;;6.30;3.30;;;;;;;18.57;71.46;97498.71;111832;1244;22539;-82
2023/10/02 09:48:53;;;;;;;9.40;3.20;;;;;;;18.48;70.64;97502.27;111769;1244;25369;-80
2023/10/02 09:51:37;;;;;;;8.10;4.00;;;;;;;18.51;71.89;97503.16;111811;1244;22514;-81
2023/10/02 09:54:20;;;;;;;10.20;3.70;;;;;;;18.46;70.91;97502.98;111752;1244;22498;-81
2023/10/02 09:57:05;;;;;;;6.80;3.50;;;;;;;18.19;70.73;97501.69;111772;1244;22502;-81
2023/10/02 09:59:45;;;;;;;7.60;3.50;;;;;;;18.05;71.56;97507.13;111817;1244;24608;-81
2023/10/02 10:08:27;;;;;;;8.30;3.80;;;;;;;18.22;72.12;97500.11;111691;1244;22509;-81
2023/10/02 10:11:10;;;;;;;7.60;3.70;;;;;;;18.47;72.86;97498.53;111820;1244;22520;-82
2023/10/02 10:13:46;;;;;;;6.70;3.40;;;;;;;18.66;72.51;97488.83;111777;1244;25370;-81
2023/10/02 10:16:36;;;;;;;7.40;3.50;;;;;;;18.95;73.78;97484.95;111804;1244;22506;-81
2023/10/02 10:19:31;;;;;;;6.20;3.00;;;;;;;19.21;72.29;97486.86;111821;1244;22508;-81
2023/10/02 10:22:10;;;;;;;8.40;3.40;;;;;;;19.16;71.50;97486.86;111795;1244;22520;-81
2023/10/02 10:24:56;;;;;;;6.90;4.10;;;;;;;19.24;71.96;97487.80;111826;1244;22492;-81
2023/10/02 10:30:50;;;;;;;10.70;3.30;;;;;;;19.46;70.77;97496.58;111790;1244;22501;-82
2023/10/02 10:33:40;;;;;;;5.80;3.30;;;;;;;19.51;71.14;97493.98;111803;1244;23184;-83
2023/10/02 10:36:37;;;;;;;7.40;3.60;;;;;;;19.47;70.85;97492.63;111818;1244;22513;-82
2023/10/02 10:39:44;;;;;;;6.50;3.10;;;;;;;19.41;71.29;97495.31;111810;1244;22506;-82
2023/10/02 10:42:13;;;;;;;8.40;3.10;;;;;;;19.45;71.46;97497.21;111791;1244;22500;-83
2023/10/02 10:44:52;;;;;;;5.40;2.80;;;;;;;19.43;70.51;97495.36;112098;1244;37752;-82
2023/10/02 10:47:37;;;;;;;4.80;2.60;;;;;;;19.21;70.51;97495.41;112107;1244;22488;-82
2023/10/02 10:50:26;;;;;;;5.80;2.60;;;;;;;19.18;70.91;97497.52;111806;1244;24212;-82
2023/10/02 10:53:26;;;;;;;7.30;3.70;;;;;;;19.13;70.73;97490.58;111778;1244;25522;-82
2023/10/02 10:55:54;;;;;;;6.80;3.00;;;;;;;18.99;71.26;97490.05;111778;1244;22596;-81
2023/10/02 10:58:33;;;;;;;7.50;3.30;;;;;;;18.88;71.14;97490.20;111805;1244;22516;-82
2023/10/02 11:01:05;;;;;;;4.90;3.10;;;;;;;18.76;71.39;97486.97;111789;1244;25215;-81
2023/10/02 11:03:38;;;;;;;5.50;2.80;;;;;;;18.69;71.66;97482.30;112135;1244;22535;-82
2023/10/02 11:06:09;;;;;;;5.60;3.00;;;;;;;18.62;71.79;97478.83;112114;1244;26416;-82
2023/10/02 11:08:39;;;;;;;5.80;3.00;;;;;;;18.61;72.25;97476.22;112104;1244;23267;-82
2023/10/02 11:11:19;;;;;;;5.30;3.00;;;;;;;18.69;72.86;97478.77;112154;1244;25228;-82
2023/10/02 11:13:54;;;;;;;7.30;3.00;;;;;;;18.77;72.96;97476.00;112054;1244;26057;-81
2023/10/02 11:16:32;;;;;;;5.50;3.20;;;;;;;18.75;72.89;97478.91;112095;1244;22520;-82
2023/10/02 11:19:34;;;;;;;4.70;2.60;;;;;;;18.76;73.38;97473.60;112133;1244;22546;-82
2023/10/02 11:22:15;;;;;;;5.80;2.80;;;;;;;18.78;73.14;97471.13;111778;1244;25273;-82
2023/10/02 11:24:45;;;;;;;5.10;2.80;;;;;;;18.77;73.49;97468.45;111784;1244;28864;-81
2023/10/02 11:27:15;;;;;;;6.20;2.90;;;;;;;18.76;73.37;97466.86;111814;1244;22503;-81
2023/10/02 11:30:00;;;;;;;5.30;3.00;;;;;;;18.71;73.43;97470.06;111784;1244;22531;-81
2023/10/02 11:32:48;;;;;;;5.10;2.60;;;;;;;18.67;73.48;97465.02;111821;1244;22584;-81
2023/10/02 11:35:17;;;;;;;3.80;2.30;;;;;;;18.59;73.36;97462.20;111797;1244;22506;-81
2023/10/02 11:37:47;;;;;;;6.10;3.00;;;;;;;18.51;73.20;97462.13;111773;1244;22499;-81
2023/10/02 11:40:24;;;;;;;5.10;2.80;;;;;;;18.44;73.47;97463.01;111799;1244;22611;-81
2023/10/02 11:42:53;;;;;;;3.80;2.90;;;;;;;18.42;73.98;97464.56;111774;1244;22493;-81
2023/10/02 11:45:22;;;;;;;6.80;2.50;;;;;;;18.40;74.04;97465.29;112080;1244;58781;-81
2023/10/02 11:47:50;;;;;;;5.80;2.90;;;;;;;18.41;74.09;97468.91;111811;1244;25355;-81
2023/10/02 11:50:19;;;;;;;5.40;3.10;;;;;;;18.42;74.61;97463.44;112084;1244;22530;-81
2023/10/02 11:52:49;;;;;;;6.50;3.30;;;;;;;18.46;75.20;97458.04;111815;1229;22507;-82
2023/10/02 11:55:18;;;;;;;7.30;3.00;;;;;;;18.53;75.74;97454.17;111825;1244;22649;-81
2023/10/02 11:57:51;;;;;;;6.60;2.80;;;;;;;18.55;75.20;97457.02;111755;1244;25257;-81
2023/10/02 12:00:23;;;;;;;4.30;3.00;;;;;;;18.56;75.41;97455.71;111773;1244;23153;-81
2023/10/02 12:02:53;;;;;;;7.00;2.60;;;;;;;18.61;75.59;97456.11;111796;1244;22659;-81
2023/10/02 12:05:23;;;;;;;5.70;2.80;;;;;;;18.68;75.64;97451.77;112057;1244;54008;-82
2023/10/02 12:07:53;;;;;;;6.30;2.50;;;;;;;18.78;75.88;97449.58;111790;1244;22554;-81
2023/10/02 12:10:21;;;;;;;3.70;2.20;;;;;;;18.86;75.88;97449.14;111777;1244;22525;-81
2023/10/02 12:12:50;;;;;;;5.30;2.20;;;;;;;18.91;75.55;97448.84;111809;1244;22519;-81
2023/10/02 12:15:19;;;;;;;4.60;1.90;;;;;;;18.86;74.83;97449.04;111779;1244;22492;-81
2023/10/02 12:17:49;;;;;;;4.70;2.50;;;;;;;18.79;74.63;97448.02;111821;1244;25192;-81
2023/10/02 12:20:22;;;;;;;;;;;;;;;18.80;75.23;97445.45;111826;1244;22573;-81
2023/10/02 12:22:52;;;;;;;3.80;2.10;;;;;;;18.91;75.27;97446.63;111787;1244;22542;-81
2023/10/02 12:25:21;;;;;;;8.10;4.40;;;;;;;19.13;75.37;97445.96;111932;1244;51713;-82
2023/10/02 12:27:52;;;;;;;5.30;2.30;;;;;;;19.25;74.89;97443.20;111781;1244;24182;-82
2023/10/02 12:30:20;;;;;;;5.80;2.60;;;;;;;19.31;74.48;97443.88;111763;1244;22623;-82